Time;durP1;ratioP1;P1;durP2;ratioP2;P2;SDS_P1;SDS_P2;PMS_P1;PMS_P2;Temp;Humidity;BMP_temperature;BMP_pressure;BME280_temperature;BME280_humidity;BME280_pressure;Samples;Min_cycle;Max_cycle;Signal;HPM_P1;HPM_P2
2023/01/06 00:00:18;;;;;;;3.72;1.80;;;9.40;26.90;;;;;;7359943;19;20015;-80
2023/01/06 00:02:49;;;;;;;3.03;1.90;;;9.50;26.60;;;;;;7361455;19;20018;-81
2023/01/06 00:05:21;;;;;;;3.08;1.90;;;9.50;26.30;;;;;;7382843;19;20018;-80
2023/01/06 00:07:51;;;;;;;2.95;1.67;;;9.60;26.00;;;;;;7365095;19;20014;-80
2023/01/06 00:10:21;;;;;;;3.15;1.70;;;9.60;25.90;;;;;;7387152;19;20509;-81
2023/01/06 00:12:52;;;;;;;2.83;1.58;;;9.60;25.20;;;;;;7390100;19;20010;-80
2023/01/06 00:15:22;;;;;;;3.38;1.63;;;9.60;25.30;;;;;;7397545;19;20458;-80
2023/01/06 00:17:52;;;;;;;3.50;1.70;;;9.60;25.40;;;;;;7396782;19;20010;-80
2023/01/06 00:20:24;;;;;;;2.22;1.73;;;9.70;24.90;;;;;;7394246;19;20474;-81
2023/01/06 00:22:54;;;;;;;2.55;1.42;;;9.70;24.40;;;;;;7397087;19;20070;-81
2023/01/06 00:25:24;;;;;;;4.55;1.90;;;9.80;24.10;;;;;;7396854;19;20070;-80
2023/01/06 00:27:54;;;;;;;2.70;1.80;;;9.70;23.60;;;;;;7396814;19;20087;-81
2023/01/06 00:30:24;;;;;;;2.35;1.60;;;9.70;23.80;;;;;;7393143;19;20014;-80
2023/01/06 00:32:55;;;;;;;2.03;1.70;;;9.80;23.70;;;;;;7397042;19;20028;-79
2023/01/06 00:35:27;;;;;;;1.80;1.50;;;9.70;23.60;;;;;;7396583;19;20017;-80
2023/01/06 00:37:57;;;;;;;1.85;1.50;;;9.70;23.80;;;;;;7394937;19;20027;-80
2023/01/06 00:40:27;;;;;;;2.08;1.48;;;9.70;24.00;;;;;;7393536;19;20014;-79
2023/01/06 00:42:57;;;;;;;4.50;1.73;;;9.70;23.60;;;;;;7396478;19;20070;-81
2023/01/06 00:45:26;;;;;;;3.25;1.33;;;9.70;23.80;;;;;;7396727;19;20014;-81
2023/01/06 00:47:56;;;;;;;1.35;1.10;;;9.70;23.60;;;;;;7395797;19;20015;-81
2023/01/06 00:50:29;;;;;;;3.30;1.50;;;9.70;24.10;;;;;;7392864;19;20015;-81
2023/01/06 00:52:58;;;;;;;2.67;1.75;;;9.70;24.00;;;;;;7395952;19;20481;-80
2023/01/06 00:55:28;;;;;;;2.80;1.80;;;9.70;23.80;;;;;;7393830;19;20021;-80
2023/01/06 00:57:58;;;;;;;2.38;1.60;;;9.70;23.90;;;;;;7395595;19;20034;-80
2023/01/06 01:00:28;;;;;;;2.03;1.70;;;9.60;23.60;;;;;;7392511;19;20011;-80
2023/01/06 01:02:58;;;;;;;2.03;1.55;;;9.60;24.10;;;;;;7395571;19;20014;-80
2023/01/06 01:05:31;;;;;;;4.63;1.80;;;9.60;23.80;;;;;;7393786;19;20014;-80
2023/01/06 01:08:00;;;;;;;3.78;2.10;;;9.60;24.30;;;;;;7395443;19;20018;-80
2023/01/06 01:10:30;;;;;;;4.25;1.85;;;9.50;24.80;;;;;;7392182;19;20038;-81
2023/01/06 01:13:00;;;;;;;2.50;1.77;;;9.50;24.80;;;;;;7396835;19;20406;-81
2023/01/06 01:15:30;;;;;;;2.63;1.70;;;9.60;24.80;;;;;;7393766;19;20023;-80
2023/01/06 01:18:00;;;;;;;4.10;1.67;;;9.60;24.70;;;;;;7395071;19;20412;-81
2023/01/06 01:20:32;;;;;;;4.15;2.00;;;9.60;24.80;;;;;;7391670;19;20526;-80
2023/01/06 01:23:02;;;;;;;2.72;2.00;;;9.60;24.60;;;;;;7394015;19;20015;-81
2023/01/06 01:25:32;;;;;;;3.38;1.52;;;9.70;24.60;;;;;;7393655;19;20010;-79
2023/01/06 01:28:02;;;;;;;2.90;1.38;;;9.70;24.60;;;;;;7394843;19;20011;-80
2023/01/06 01:30:31;;;;;;;3.28;1.50;;;9.80;23.90;;;;;;7360437;19;20015;-80
2023/01/06 01:33:01;;;;;;;3.08;1.27;;;9.80;23.90;;;;;;7391483;19;20060;-80
2023/01/06 01:35:34;;;;;;;1.75;1.13;;;9.90;23.60;;;;;;7366094;19;20058;-79
2023/01/06 01:38:03;;;;;;;4.05;1.90;;;9.90;22.80;;;;;;7366169;19;20014;-79
2023/01/06 01:40:33;;;;;;;2.92;1.30;;;10.00;22.00;;;;;;7363704;19;20010;-80
2023/01/06 01:43:03;;;;;;;2.08;1.30;;;10.00;22.00;;;;;;7387779;19;20017;-80
2023/01/06 01:45:33;;;;;;;3.30;1.35;;;9.90;22.70;;;;;;7365337;19;20021;-80
2023/01/06 01:48:06;;;;;;;14.40;1.83;;;9.90;22.70;;;;;;7365310;19;20017;-81
2023/01/06 01:50:44;;;;;;;3.57;1.60;;;10.00;22.00;;;;;;7363788;19;20014;-81
2023/01/06 01:53:18;;;;;;;2.33;1.30;;;9.90;22.70;;;;;;7365741;19;20616;-79
2023/01/06 01:55:50;;;;;;;3.28;1.48;;;9.90;22.70;;;;;;7365916;19;20010;-81
2023/01/06 01:58:25;;;;;;;3.60;1.20;;;9.90;22.60;;;;;;7363705;19;20019;-81
2023/01/06 02:00:55;;;;;;;2.92;1.55;;;9.90;22.70;;;;;;7386925;19;20078;-79
2023/01/06 02:03:27;;;;;;;4.47;1.50;;;9.90;22.70;;;;;;7364788;19;20017;-80
2023/01/06 02:06:06;;;;;;;2.30;1.48;;;9.80;22.70;;;;;;7364254;19;20400;-81
2023/01/06 02:08:39;;;;;;;2.25;1.27;;;9.80;23.70;;;;;;7364595;19;20027;-81
2023/01/06 02:11:11;;;;;;;4.28;1.40;;;9.70;23.30;;;;;;7365943;19;20014;-81
2023/01/06 02:13:43;;;;;;;3.10;1.50;;;9.80;23.80;;;;;;7366811;19;20022;-81
2023/01/06 02:16:21;;;;;;;2.50;1.25;;;9.80;23.50;;;;;;7371589;19;20025;-82
2023/01/06 02:18:59;;;;;;;2.97;1.55;;;9.80;23.00;;;;;;7385561;19;20015;-81
2023/01/06 02:21:59;;;;;;;1.52;1.10;;;9.80;23.40;;;;;;7364445;19;20014;-80
2023/01/06 02:24:49;;;;;;;2.47;1.42;;;9.90;22.80;;;;;;7363968;19;20667;-81
2023/01/06 02:27:37;;;;;;;2.78;1.23;;;9.90;22.70;;;;;;7364069;19;20129;-80
2023/01/06 02:30:45;;;;;;;3.42;1.63;;;9.90;22.70;;;;;;7365054;19;20019;-81
2023/01/06 02:33:31;;;;;;;1.77;1.30;;;9.90;22.70;;;;;;7392313;19;20031;-80
2023/01/06 02:36:19;;;;;;;4.60;1.52;;;9.90;22.70;;;;;;7390999;19;20791;-81
2023/01/06 02:39:12;;;;;;;2.45;1.60;;;9.90;22.70;;;;;;7389952;19;20018;-81
2023/01/06 02:41:45;;;;;;;1.55;1.17;;;9.90;22.80;;;;;;7392462;19;20477;-80
2023/01/06 02:44:21;;;;;;;2.72;1.25;;;9.90;22.80;;;;;;7392263;19;20011;-80
2023/01/06 02:47:13;;;;;;;2.92;1.48;;;9.90;23.30;;;;;;7391189;19;20026;-81
2023/01/06 02:49:55;;;;;;;2.17;1.45;;;9.90;23.60;;;;;;7390427;19;20014;-81
2023/01/06 02:52:35;;;;;;;2.72;1.70;;;9.90;23.90;;;;;;7389619;19;20019;-81
2023/01/06 02:55:09;;;;;;;4.57;1.20;;;9.90;23.80;;;;;;7392683;19;20032;-81
2023/01/06 02:57:44;;;;;;;2.90;1.40;;;9.90;23.20;;;;;;7392195;19;20017;-80
2023/01/06 03:00:19;;;;;;;1.73;1.20;;;9.90;23.10;;;;;;7389358;19;20010;-79
2023/01/06 03:02:56;;;;;;;2.55;1.35;;;10.00;22.30;;;;;;7392279;19;20006;-80
2023/01/06 03:05:30;;;;;;;2.47;1.40;;;10.00;22.10;;;;;;7391718;19;20024;-80
2023/01/06 03:08:04;;;;;;;1.85;1.35;;;10.00;22.10;;;;;;7391517;19;20490;-80
2023/01/06 03:10:35;;;;;;;2.53;1.10;;;10.00;22.00;;;;;;7389214;19;20018;-80
2023/01/06 03:13:08;;;;;;;2.78;1.30;;;10.00;22.00;;;;;;7390388;19;20014;-80
2023/01/06 03:15:38;;;;;;;1.08;0.80;;;10.00;22.10;;;;;;7391242;19;20031;-81
2023/01/06 03:18:08;;;;;;;2.47;1.00;;;10.10;22.10;;;;;;7391563;19;20051;-81
2023/01/06 03:20:41;;;;;;;1.55;1.08;;;10.20;22.20;;;;;;7387199;19;20015;-81
2023/01/06 03:23:11;;;;;;;1.60;1.17;;;10.20;21.50;;;;;;7391035;19;20078;-80
2023/01/06 03:25:41;;;;;;;2.28;1.30;;;10.10;21.60;;;;;;7389118;19;20029;-80
2023/01/06 03:28:11;;;;;;;3.00;1.52;;;10.00;22.00;;;;;;7390500;19;20018;-81
2023/01/06 03:30:47;;;;;;;2.13;1.55;;;10.00;22.10;;;;;;7390059;19;20014;-80
2023/01/06 03:33:24;;;;;;;2.38;1.52;;;9.90;22.70;;;;;;7390456;19;20018;-80
2023/01/06 03:36:07;;;;;;;4.53;1.50;;;9.90;23.20;;;;;;7390089;19;20014;-80
2023/01/06 03:38:58;;;;;;;1.73;1.33;;;9.90;23.50;;;;;;7389527;19;20038;-79
2023/01/06 03:44:25;;;;;;;2.70;1.30;;;9.80;23.80;;;;;;7389636;19;20007;-80
2023/01/06 03:47:06;;;;;;;3.63;1.60;;;9.80;24.20;;;;;;7390188;19;20078;-80
2023/01/06 03:49:45;;;;;;;7.78;1.77;;;9.80;24.70;;;;;;7355069;19;20028;-80
2023/01/06 03:52:23;;;;;;;2.63;1.77;;;9.70;24.60;;;;;;7387766;19;20086;-80
2023/01/06 03:54:59;;;;;;;2.67;1.85;;;9.60;25.10;;;;;;7362411;19;20090;-80
2023/01/06 03:57:32;;;;;;;2.50;1.77;;;9.60;25.00;;;;;;7383031;19;20517;-81
2023/01/06 04:00:07;;;;;;;1.80;1.50;;;9.60;25.00;;;;;;7359292;19;20014;-80
2023/01/06 04:02:39;;;;;;;2.10;1.40;;;9.50;25.90;;;;;;7361111;19;20010;-80
2023/01/06 04:05:13;;;;;;;1.70;1.33;;;9.50;26.30;;;;;;7361486;19;20010;-80
2023/01/06 04:07:45;;;;;;;3.42;1.70;;;9.50;26.50;;;;;;7361889;19;20014;-80
2023/01/06 04:10:17;;;;;;;2.58;1.40;;;9.50;26.80;;;;;;7360145;19;20073;-79
2023/01/06 04:12:48;;;;;;;2.30;1.30;;;9.50;25.90;;;;;;7360346;19;20149;-79
2023/01/06 04:15:19;;;;;;;2.13;1.70;;;9.60;26.40;;;;;;7383266;19;20018;-80
2023/01/06 04:17:50;;;;;;;2.75;1.65;;;9.70;25.50;;;;;;7361378;19;20568;-80
2023/01/06 04:20:22;;;;;;;2.65;1.35;;;9.80;24.10;;;;;;7360607;19;20018;-79
2023/01/06 04:22:55;;;;;;;2.42;1.58;;;9.80;23.50;;;;;;7360773;19;20029;-80
2023/01/06 04:25:25;;;;;;;2.50;1.48;;;9.70;23.70;;;;;;7361335;19;20023;-79
2023/01/06 04:27:55;;;;;;;1.80;1.35;;;9.80;24.30;;;;;;7361274;19;20339;-79
2023/01/06 04:30:25;;;;;;;5.18;1.30;;;9.80;24.00;;;;;;7380567;19;20486;-79
2023/01/06 04:32:55;;;;;;;2.25;1.35;;;9.80;24.80;;;;;;7360406;19;20018;-80
2023/01/06 04:35:24;;;;;;;2.97;1.40;;;9.80;25.50;;;;;;7360828;19;20022;-80
2023/01/06 04:37:57;;;;;;;5.47;1.25;;;9.80;26.20;;;;;;7360731;19;20035;-80
2023/01/06 04:40:27;;;;;;;1.52;1.33;;;9.80;26.70;;;;;;7359329;19;20490;-80
2023/01/06 04:43:06;;;;;;;2.60;1.38;;;9.80;27.50;;;;;;7362602;19;20015;-79
2023/01/06 04:45:36;;;;;;;1.58;1.05;;;9.80;28.60;;;;;;7360935;19;20022;-81
2023/01/06 04:48:07;;;;;;;1.52;1.00;;;9.90;29.60;;;;;;7382627;19;20014;-81
2023/01/06 04:50:37;;;;;;;3.22;1.20;;;9.90;31.80;;;;;;7364151;19;20006;-80
2023/01/06 04:53:12;;;;;;;1.92;1.20;;;9.90;35.10;;;;;;7391077;19;20033;-80
2023/01/06 04:55:42;;;;;;;;;;;9.90;35.00;;;;;;7389810;19;20010;-79
2023/01/06 04:58:12;;;;;;;1.90;1.27;;;9.80;35.80;;;;;;7388489;19;19915;-80
2023/01/06 05:00:42;;;;;;;2.55;1.15;;;9.80;36.60;;;;;;7390656;19;20015;-80
2023/01/06 05:03:11;;;;;;;1.35;1.25;;;9.80;37.60;;;;;;7395412;19;20380;-80
2023/01/06 05:05:41;;;;;;;2.20;1.50;;;9.80;37.90;;;;;;7393953;19;20015;-80
2023/01/06 05:08:14;;;;;;;1.70;1.50;;;9.80;38.80;;;;;;7396315;19;20043;-79
2023/01/06 05:10:44;;;;;;;2.08;1.60;;;9.80;39.50;;;;;;7395916;19;20078;-80
2023/01/06 05:13:14;;;;;;;3.13;1.80;;;9.80;40.10;;;;;;7394979;19;20010;-80
2023/01/06 05:15:43;;;;;;;2.15;1.80;;;9.70;41.70;;;;;;7395387;19;20013;-80
2023/01/06 05:18:13;;;;;;;2.67;1.60;;;9.80;42.00;;;;;;7394556;19;20018;-80
2023/01/06 05:20:43;;;;;;;2.55;1.80;;;9.80;43.30;;;;;;7395236;19;20010;-80
2023/01/06 05:23:16;;;;;;;2.15;1.75;;;9.80;43.70;;;;;;7394030;19;20007;-80
2023/01/06 05:25:46;;;;;;;2.95;2.08;;;9.70;44.10;;;;;;7395676;19;20007;-80
2023/01/06 05:28:15;;;;;;;2.45;1.50;;;9.80;45.00;;;;;;7392676;19;20471;-80
2023/01/06 05:30:45;;;;;;;2.40;1.77;;;9.80;45.80;;;;;;7395192;19;20031;-79
2023/01/06 05:33:15;;;;;;;3.22;1.92;;;9.70;45.70;;;;;;7393003;19;20013;-80
2023/01/06 05:35:45;;;;;;;4.22;2.47;;;9.70;46.10;;;;;;7395115;19;20139;-79
2023/01/06 05:38:18;;;;;;;2.17;1.98;;;9.70;46.60;;;;;;7392534;19;20049;-79
2023/01/06 05:40:52;;;;;;;5.28;2.30;;;9.70;47.00;;;;;;7392821;19;20350;-80
2023/01/06 05:43:22;;;;;;;;;;;9.70;47.40;;;;;;7395063;19;20027;-80
2023/01/06 05:45:54;;;;;;;6.18;2.63;;;9.70;48.00;;;;;;7394532;19;19911;-80
2023/01/06 05:48:27;;;;;;;3.63;2.42;;;9.70;48.10;;;;;;7394067;19;20017;-80
2023/01/06 05:51:02;;;;;;;3.72;2.58;;;9.70;48.00;;;;;;7394981;19;20019;-80
2023/01/06 05:53:36;;;;;;;3.67;2.22;;;9.70;48.50;;;;;;7393531;19;20010;-80
2023/01/06 05:56:07;;;;;;;3.55;2.30;;;9.60;48.70;;;;;;7393073;19;20015;-82
2023/01/06 05:58:39;;;;;;;3.17;2.50;;;9.60;48.70;;;;;;7393692;19;20549;-79
2023/01/06 06:01:15;;;;;;;3.88;2.63;;;9.50;47.90;;;;;;7394805;19;20031;-80
2023/01/06 06:03:46;;;;;;;3.40;2.20;;;9.50;47.40;;;;;;7392696;19;20035;-80
2023/01/06 06:06:16;;;;;;;3.80;2.40;;;9.40;45.80;;;;;;7392545;19;20396;-79
2023/01/06 06:08:49;;;;;;;4.80;1.95;;;9.40;44.10;;;;;;7363825;19;20515;-79
2023/01/06 06:11:21;;;;;;;3.28;2.00;;;9.40;42.50;;;;;;7392390;19;20601;-79
2023/01/06 06:13:53;;;;;;;2.50;1.85;;;9.30;41.30;;;;;;7367140;19;20014;-79
2023/01/06 06:16:24;;;;;;;3.10;2.03;;;9.30;40.10;;;;;;7367575;19;20007;-78
2023/01/06 06:18:57;;;;;;;3.22;1.92;;;9.30;40.20;;;;;;7364816;19;20039;-81
2023/01/06 06:21:30;;;;;;;2.58;2.10;;;9.30;39.70;;;;;;7387661;19;20021;-79
2023/01/06 06:24:02;;;;;;;2.60;2.20;;;9.30;38.50;;;;;;7364575;19;20015;-80
2023/01/06 06:26:32;;;;;;;3.17;2.20;;;9.30;38.10;;;;;;7364848;19;20062;-79
2023/01/06 06:29:02;;;;;;;3.03;2.40;;;9.30;37.40;;;;;;7363666;19;20011;-79
2023/01/06 06:31:34;;;;;;;3.33;2.38;;;9.30;36.60;;;;;;7366391;19;20019;-79
2023/01/06 06:34:05;;;;;;;3.88;2.40;;;9.30;35.80;;;;;;7364820;19;20011;-80
2023/01/06 06:36:35;;;;;;;3.92;2.70;;;9.30;35.60;;;;;;7387360;19;20089;-80
2023/01/06 06:39:08;;;;;;;3.63;2.30;;;9.30;33.20;;;;;;7364436;19;20026;-80
2023/01/06 06:41:40;;;;;;;3.67;2.83;;;9.30;32.80;;;;;;7365816;19;20070;-80
2023/01/06 06:44:10;;;;;;;4.43;2.95;;;9.30;32.70;;;;;;7363873;19;20014;-79
2023/01/06 06:46:40;;;;;;;4.63;2.80;;;9.30;33.00;;;;;;7363890;19;20018;-79
2023/01/06 06:49:10;;;;;;;4.28;2.50;;;9.30;33.10;;;;;;7362371;19;20081;-80
2023/01/06 06:51:40;;;;;;;4.32;2.90;;;9.20;33.10;;;;;;7385039;19;20016;-79
2023/01/06 06:54:12;;;;;;;8.55;3.00;;;9.20;33.10;;;;;;7372756;19;20018;-79
2023/01/06 06:56:42;;;;;;;4.65;2.70;;;9.30;33.10;;;;;;7373044;19;20120;-79
2023/01/06 06:59:12;;;;;;;3.95;3.13;;;9.20;33.10;;;;;;7364791;19;20014;-79
2023/01/06 07:01:41;;;;;;;8.27;4.72;;;9.20;34.20;;;;;;7364130;19;20076;-79
2023/01/06 07:04:11;;;;;;;4.18;3.08;;;9.20;34.90;;;;;;7365301;19;22237;-79
2023/01/06 07:06:41;;;;;;;4.45;2.80;;;9.20;35.90;;;;;;7386823;19;20011;-79
2023/01/06 07:09:14;;;;;;;4.88;2.83;;;9.20;37.60;;;;;;7367404;19;20057;-80
2023/01/06 07:11:44;;;;;;;3.00;2.70;;;9.20;39.50;;;;;;7363305;19;20022;-80
2023/01/06 07:14:14;;;;;;;4.05;3.47;;;9.20;41.50;;;;;;7362178;19;20098;-79
2023/01/06 07:16:43;;;;;;;5.22;3.30;;;9.20;42.60;;;;;;7363541;19;20564;-80
2023/01/06 07:19:13;;;;;;;4.53;3.70;;;9.20;43.40;;;;;;7362094;19;20083;-79
2023/01/06 07:21:43;;;;;;;7.18;3.40;;;9.20;44.80;;;;;;7384729;19;20062;-79
2023/01/06 07:24:15;;;;;;;4.40;3.60;;;9.20;46.80;;;;;;7360378;19;20018;-76
2023/01/06 07:26:45;;;;;;;5.78;3.53;;;9.10;47.30;;;;;;7362482;19;20049;-77
2023/01/06 07:29:15;;;;;;;4.70;3.20;;;9.10;48.20;;;;;;7360660;19;20145;-77
2023/01/06 07:31:45;;;;;;;6.05;3.20;;;9.10;49.20;;;;;;7362423;19;20014;-77
2023/01/06 07:34:18;;;;;;;5.72;3.20;;;9.10;49.60;;;;;;7361702;19;20030;-76
2023/01/06 07:36:47;;;;;;;5.43;3.30;;;9.20;49.80;;;;;;7382765;19;20014;-77
2023/01/06 07:39:20;;;;;;;4.57;3.30;;;9.20;50.50;;;;;;7360252;19;20483;-75
2023/01/06 07:41:50;;;;;;;4.75;3.63;;;9.20;51.00;;;;;;7360718;19;20018;-75
2023/01/06 07:44:19;;;;;;;6.18;3.28;;;9.30;51.50;;;;;;7361592;19;20014;-76
2023/01/06 07:46:49;;;;;;;5.22;3.10;;;9.30;52.10;;;;;;7360904;19;20500;-75
2023/01/06 07:49:19;;;;;;;6.95;2.55;;;9.30;52.80;;;;;;7360667;19;20558;-75
2023/01/06 07:51:49;;;;;;;3.00;1.90;;;9.30;53.60;;;;;;7383044;19;20019;-76
2023/01/06 07:54:21;;;;;;;2.65;1.83;;;9.30;53.80;;;;;;7361092;19;20014;-76
2023/01/06 07:56:51;;;;;;;2.13;1.55;;;9.30;53.80;;;;;;7361776;19;20018;-75
2023/01/06 07:59:21;;;;;;;2.10;1.70;;;9.20;53.80;;;;;;7360458;19;20029;-76
2023/01/06 08:01:51;;;;;;;3.67;2.13;;;9.20;53.70;;;;;;7362852;19;20028;-75
2023/01/06 08:04:23;;;;;;;4.47;1.70;;;9.00;51.40;;;;;;7363515;19;20015;-76
2023/01/06 08:06:56;;;;;;;3.30;1.45;;;9.00;51.50;;;;;;7366058;19;20017;-76
2023/01/06 08:09:28;;;;;;;2.45;1.20;;;9.00;50.60;;;;;;7384403;19;20017;-75
2023/01/06 08:11:58;;;;;;;1.85;1.27;;;8.90;46.90;;;;;;7321486;19;20110;-75
2023/01/06 08:14:28;;;;;;;1.30;0.90;;;9.00;45.80;;;;;;7387789;19;20101;-75
2023/01/06 08:16:58;;;;;;;2.10;0.88;;;9.00;42.20;;;;;;7362678;19;20015;-75
2023/01/06 08:19:28;;;;;;;2.72;0.85;;;9.00;38.00;;;;;;7360132;19;20019;-75
2023/01/06 08:21:57;;;;;;;2.55;0.90;;;9.00;32.90;;;;;;7382624;19;20049;-74
2023/01/06 08:24:32;;;;;;;2.47;0.85;;;9.10;33.30;;;;;;7360716;19;20010;-75
2023/01/06 08:27:01;;;;;;;1.42;0.73;;;9.10;33.00;;;;;;7361545;19;20014;-76
2023/01/06 08:29:33;;;;;;;1.38;0.60;;;9.10;31.80;;;;;;7359610;19;20542;-75
2023/01/06 08:32:03;;;;;;;2.58;0.70;;;9.20;29.20;;;;;;7360428;19;20087;-75
2023/01/06 08:34:39;;;;;;;2.65;0.80;;;9.20;26.30;;;;;;7363018;19;20474;-74
2023/01/06 08:37:09;;;;;;;3.10;0.75;;;9.30;26.70;;;;;;7368182;19;20049;-74
2023/01/06 08:39:42;;;;;;;2.55;0.80;;;9.20;25.80;;;;;;7387283;19;20021;-75
2023/01/06 08:42:15;;;;;;;1.17;0.50;;;9.30;24.40;;;;;;7367428;19;20016;-75
2023/01/06 08:44:44;;;;;;;1.85;0.60;;;9.30;22.90;;;;;;7368401;19;20022;-75
2023/01/06 08:47:14;;;;;;;0.88;0.50;;;9.40;23.30;;;;;;7368130;19;20028;-74
2023/01/06 08:49:44;;;;;;;1.25;1.00;;;9.40;22.50;;;;;;7366704;19;20356;-75
2023/01/06 08:52:14;;;;;;;1.58;0.98;;;9.40;21.00;;;;;;7368766;19;20015;-74
2023/01/06 08:54:46;;;;;;;3.10;0.70;;;9.50;21.70;;;;;;7387552;19;20022;-75
2023/01/06 08:57:17;;;;;;;0.93;0.60;;;9.50;21.10;;;;;;7367232;19;20864;-75
2023/01/06 08:59:47;;;;;;;2.33;0.80;;;9.60;19.80;;;;;;7365808;19;20019;-76
2023/01/06 09:02:16;;;;;;;1.50;0.68;;;9.70;18.30;;;;;;7370115;19;20006;-75
2023/01/06 09:04:46;;;;;;;1.52;0.85;;;9.70;17.90;;;;;;7367577;19;20017;-76
2023/01/06 09:07:16;;;;;;;1.85;1.00;;;9.80;16.90;;;;;;7375991;19;20018;-74
2023/01/06 09:09:49;;;;;;;9.38;0.90;;;9.80;16.70;;;;;;7393343;19;20031;-75
2023/01/06 09:12:19;;;;;;;1.52;0.55;;;9.90;14.20;;;;;;7371718;19;20407;-76
2023/01/06 09:14:49;;;;;;;2.65;0.70;;;9.90;13.20;;;;;;7398880;19;20007;-75
2023/01/06 09:17:18;;;;;;;2.67;0.70;;;10.10;11.60;;;;;;7395189;19;20006;-76
2023/01/06 09:19:48;;;;;;;4.97;0.73;;;10.10;10.40;;;;;;7366087;19;20014;-76
2023/01/06 09:22:18;;;;;;;2.75;0.57;;;10.20;9.40;;;;;;7388960;19;20022;-76
2023/01/06 09:24:50;;;;;;;1.48;0.43;;;10.20;7.80;;;;;;7389283;19;20024;-76
2023/01/06 09:27:20;;;;;;;1.08;0.43;;;10.30;6.80;;;;;;7366691;19;20086;-76
2023/01/06 09:29:52;;;;;;;1.40;0.50;;;10.40;5.20;;;;;;7363954;19;20103;-76
2023/01/06 09:32:21;;;;;;;1.40;0.30;;;10.40;4.50;;;;;;7365760;19;20017;-77
2023/01/06 09:34:51;;;;;;;1.08;0.38;;;10.40;4.30;;;;;;7364887;19;20069;-77
2023/01/06 09:37:21;;;;;;;0.70;0.30;;;10.50;4.10;;;;;;7366947;19;20122;-76
2023/01/06 09:39:53;;;;;;;1.17;0.43;;;10.40;3.10;;;;;;7385949;19;20018;-76
2023/01/06 09:42:43;;;;;;;1.33;0.50;;;10.60;3.80;;;;;;7366454;19;20022;-77
2023/01/06 09:45:18;;;;;;;0.80;0.28;;;10.70;3.30;;;;;;7366424;19;20007;-77
2023/01/06 09:47:51;;;;;;;;;;;10.70;2.00;;;;;;7364714;19;20024;-77
2023/01/06 09:50:31;;;;;;;2.83;0.80;;;10.70;2.40;;;;;;7365039;19;19921;-78
2023/01/06 09:53:07;;;;;;;1.10;0.73;;;10.80;1.90;;;;;;7366742;19;20014;-78
2023/01/06 09:55:43;;;;;;;0.90;0.63;;;10.90;1.70;;;;;;7363925;19;20094;-77
2023/01/06 09:58:16;;;;;;;1.02;0.60;;;10.90;1.00;;;;;;7369436;19;20094;-76
2023/01/06 10:00:48;;;;;;;0.93;0.40;;;10.90;1.00;;;;;;7387568;19;20057;-77
2023/01/06 10:03:21;;;;;;;1.55;0.50;;;10.80;1.00;;;;;;7372549;19;20441;-79
2023/01/06 10:06:06;;;;;;;0.70;0.47;;;10.80;1.00;;;;;;7370501;19;20014;-77
2023/01/06 10:08:45;;;;;;;0.82;0.55;;;10.80;1.00;;;;;;7387838;19;20410;-78
2023/01/06 10:11:26;;;;;;;1.23;0.57;;;10.80;1.00;;;;;;7367160;19;20593;-77
2023/01/06 10:14:10;;;;;;;0.88;0.63;;;10.90;1.00;;;;;;7368691;19;20052;-79
2023/01/06 10:16:53;;;;;;;0.82;0.40;;;10.90;1.00;;;;;;7396353;19;20002;-78
2023/01/06 10:19:32;;;;;;;0.65;0.50;;;10.90;1.00;;;;;;7398506;19;20002;-79
2023/01/06 10:22:08;;;;;;;0.77;0.43;;;10.90;1.00;;;;;;7403440;19;20019;-78
2023/01/06 10:24:54;;;;;;;0.40;0.30;;;11.10;1.00;;;;;;7396998;19;20010;-79
2023/01/06 10:27:36;;;;;;;0.40;0.30;;;11.00;1.00;;;;;;7397763;19;20056;-80
2023/01/06 10:30:17;;;;;;;0.60;0.40;;;11.00;1.00;;;;;;7393978;19;20007;-79
2023/01/06 10:32:49;;;;;;;0.93;0.50;;;11.10;1.00;;;;;;7395970;19;20021;-78
2023/01/06 10:35:25;;;;;;;0.32;0.32;;;11.10;1.00;;;;;;7394151;19;20007;-79
2023/01/06 10:37:59;;;;;;;0.55;0.35;;;10.90;1.00;;;;;;7395703;19;20003;-78
2023/01/06 10:40:32;;;;;;;1.33;0.70;;;10.90;1.00;;;;;;7363533;19;20489;-78
2023/01/06 10:43:12;;;;;;;0.73;0.52;;;11.00;1.00;;;;;;7391431;19;20438;-78
2023/01/06 10:45:46;;;;;;;1.63;0.88;;;11.00;1.00;;;;;;7367586;19;20078;-79
2023/01/06 10:48:20;;;;;;;0.63;0.50;;;11.00;1.00;;;;;;7367905;19;20042;-80
2023/01/06 10:50:53;;;;;;;1.77;0.57;;;11.00;1.00;;;;;;7365718;19;20021;-79
2023/01/06 10:53:29;;;;;;;0.80;0.50;;;11.10;1.00;;;;;;7391425;19;20019;-75
2023/01/06 10:56:03;;;;;;;2.50;0.80;;;11.20;1.00;;;;;;7368743;19;20026;-79
2023/01/06 10:58:42;;;;;;;1.00;0.68;;;11.30;1.00;;;;;;7363465;19;20010;-78
2023/01/06 11:01:14;;;;;;;1.15;0.70;;;11.30;1.00;;;;;;7364212;19;20488;-77
2023/01/06 11:03:46;;;;;;;1.15;0.70;;;11.30;1.00;;;;;;7364481;19;20011;-78
2023/01/06 11:06:21;;;;;;;1.17;0.60;;;11.20;1.00;;;;;;7365271;19;20066;-79
2023/01/06 11:08:51;;;;;;;0.88;0.60;;;11.20;1.00;;;;;;7365299;19;20014;-79
2023/01/06 11:11:22;;;;;;;0.80;0.52;;;11.10;1.00;;;;;;7388151;19;20384;-80
2023/01/06 11:14:04;;;;;;;1.15;0.60;;;11.00;1.00;;;;;;7367752;19;20512;-79
2023/01/06 11:16:38;;;;;;;1.17;0.70;;;11.00;1.00;;;;;;7364554;19;20007;-79
2023/01/06 11:19:25;;;;;;;1.55;1.00;;;10.90;1.00;;;;;;7363428;19;20830;-79
2023/01/06 11:21:58;;;;;;;3.15;0.60;;;11.10;1.00;;;;;;7366224;19;20549;-80
2023/01/06 11:24:29;;;;;;;1.30;0.70;;;11.00;1.00;;;;;;7365759;19;20094;-81
2023/01/06 11:27:03;;;;;;;2.05;0.90;;;11.00;1.00;;;;;;7367306;19;20093;-80
2023/01/06 11:29:37;;;;;;;1.45;1.02;;;11.00;1.00;;;;;;7387317;19;20010;-80
2023/01/06 11:32:19;;;;;;;1.07;0.60;;;11.30;1.00;;;;;;7366655;19;20011;-80
2023/01/06 11:34:55;;;;;;;1.00;0.50;;;11.20;1.00;;;;;;7367507;19;20479;-79
2023/01/06 11:37:32;;;;;;;1.45;0.68;;;11.40;1.00;;;;;;7369125;19;20011;-81
2023/01/06 11:40:17;;;;;;;1.05;0.68;;;11.30;1.00;;;;;;7368915;19;20420;-80
2023/01/06 11:42:56;;;;;;;1.65;0.77;;;11.20;1.00;;;;;;7367953;19;20090;-80
2023/01/06 11:45:39;;;;;;;1.25;0.65;;;11.10;1.00;;;;;;7370425;19;20011;-80
2023/01/06 11:48:17;;;;;;;1.73;1.20;;;11.20;1.00;;;;;;7365114;19;20071;-77
2023/01/06 11:51:00;;;;;;;1.60;0.95;;;11.20;1.00;;;;;;7369722;19;20011;-81
2023/01/06 11:53:32;;;;;;;0.70;0.50;;;11.20;1.00;;;;;;7387290;19;20098;-80
2023/01/06 11:56:07;;;;;;;1.25;0.60;;;11.20;1.00;;;;;;7364608;19;20105;-80
2023/01/06 11:58:45;;;;;;;1.60;0.43;;;11.20;1.00;;;;;;7365740;19;20018;-79
2023/01/06 12:01:31;;;;;;;1.27;0.55;;;11.10;1.00;;;;;;7365564;19;20011;-80
2023/01/06 12:04:13;;;;;;;0.35;0.32;;;11.20;1.00;;;;;;7364767;19;20082;-80
2023/01/06 12:06:46;;;;;;;1.10;0.80;;;11.10;1.00;;;;;;7360865;19;20011;-80
2023/01/06 12:09:23;;;;;;;2.40;2.13;;;11.00;1.00;;;;;;7361341;19;20453;-79
2023/01/06 12:11:55;;;;;;;1.55;1.10;;;11.10;1.00;;;;;;7364111;19;20015;-80
2023/01/06 12:14:27;;;;;;;3.17;0.98;;;11.20;1.00;;;;;;7385409;19;20407;-79
2023/01/06 12:17:07;;;;;;;1.27;0.90;;;11.20;1.00;;;;;;7359127;19;20010;-80
2023/01/06 12:19:42;;;;;;;0.93;0.80;;;11.10;1.00;;;;;;7359161;19;20640;-80
2023/01/06 12:22:22;;;;;;;1.15;0.80;;;11.20;1.00;;;;;;7359613;19;20011;-80
2023/01/06 12:24:53;;;;;;;0.55;0.50;;;11.30;1.00;;;;;;7360134;19;20015;-82
2023/01/06 12:27:32;;;;;;;0.68;0.50;;;11.30;1.00;;;;;;7360938;19;20039;-79
2023/01/06 12:30:06;;;;;;;1.15;0.77;;;11.20;1.00;;;;;;7358143;19;20017;-80
2023/01/06 12:32:43;;;;;;;2.20;1.00;;;11.10;1.00;;;;;;7359537;19;20025;-79
2023/01/06 12:35:18;;;;;;;0.90;0.73;;;11.20;1.00;;;;;;7381471;19;20015;-80
2023/01/06 12:37:51;;;;;;;2.13;0.90;;;11.30;1.00;;;;;;7358486;19;20482;-80
2023/01/06 12:40:26;;;;;;;0.93;0.80;;;11.30;1.00;;;;;;7358486;19;20070;-81
2023/01/06 12:43:01;;;;;;;1.20;0.80;;;11.30;1.00;;;;;;7385475;19;20014;-82
2023/01/06 12:45:38;;;;;;;1.30;0.82;;;11.30;1.00;;;;;;7388064;19;20019;-79
2023/01/06 12:48:25;;;;;;;2.38;0.73;;;11.30;1.00;;;;;;7385456;19;20421;-81
2023/01/06 12:51:00;;;;;;;2.28;1.10;;;11.40;1.00;;;;;;7387992;19;20011;-80
2023/01/06 12:53:35;;;;;;;0.90;0.60;;;11.40;1.00;;;;;;7387518;19;20529;-79
2023/01/06 12:56:23;;;;;;;2.33;1.00;;;11.30;1.00;;;;;;7388614;19;20014;-80
2023/01/06 12:59:02;;;;;;;1.70;1.38;;;11.40;1.00;;;;;;7387203;19;20122;-81
2023/01/06 13:01:38;;;;;;;1.33;0.80;;;11.50;1.00;;;;;;7388021;19;20450;-79
2023/01/06 13:04:42;;;;;;;1.23;0.55;;;11.40;1.00;;;;;;7387117;19;20031;-80
2023/01/06 13:07:19;;;;;;;0.85;0.60;;;11.50;1.00;;;;;;7387093;19;20070;-79
2023/01/06 13:09:59;;;;;;;0.85;0.73;;;11.50;1.00;;;;;;7384355;19;20010;-79
2023/01/06 13:12:45;;;;;;;1.05;0.60;;;11.40;1.00;;;;;;7386832;19;20019;-80
2023/01/06 13:15:23;;;;;;;0.73;0.63;;;11.50;1.00;;;;;;7385587;19;20053;-79
2023/01/06 13:18:05;;;;;;;1.88;0.95;;;11.30;1.00;;;;;;7386458;19;20026;-80
2023/01/06 13:20:43;;;;;;;4.07;0.80;;;11.30;1.00;;;;;;7385157;19;20014;-78
2023/01/06 13:23:39;;;;;;;1.00;0.73;;;11.30;1.00;;;;;;7392360;19;20542;-79
2023/01/06 13:26:41;;;;;;;0.75;0.60;;;11.20;1.00;;;;;;7394814;19;20074;-79
2023/01/06 13:29:23;;;;;;;1.52;0.80;;;11.00;1.00;;;;;;7392607;19;20347;-78
2023/01/06 13:32:12;;;;;;;1.10;0.63;;;10.90;1.00;;;;;;7394464;19;20007;-80
2023/01/06 13:35:29;;;;;;;0.85;0.65;;;10.90;1.00;;;;;;7393894;19;20082;-80